KPAE/PAE METAR and TAF weather

Enter ICAO airport designator
Station Type Date Time Source
KPAE METAR 2020/04/04 04:00 UTC NOAA

KPAE 040400Z AUTO VRB03KT 10SM BKN018 BKN023 OVC030 04/02 A2999 RMK AO2 T00440017


Station Type Date Time Source
KPAE Decoded METAR 2020/04/04 04:00 UTC NOAA

EVERETT SNOHOMISH COUNTY, WA, United States (KPAE) 47-55N 122-17W 180M
Apr 04, 2020 - 12:00 AM EDT / 2020.04.04 0400 UTC
Wind: Variable at 3 MPH (3 KT):0
Visibility: 10 mile(s):0
Sky conditions: overcast
Temperature: 39.9 F (4.4 C)
Dew Point: 35.1 F (1.7 C)
Relative Humidity: 82%
Pressure (altimeter): 29.99 in. Hg (1015 hPa)
ob: KPAE 040400Z AUTO VRB03KT 10SM BKN018 BKN023 OVC030 04/02 A2999 RMK AO2 T00440017
cycle: 4

Station Type Date Time Source
KPAE TAF 2020/04/03 21:09 UTC NOAA

TAF
AMD KPAE 032107Z 0321/0418 22008KT P6SM -SHRA BKN030 BKN060
TEMPO 0321/0324 4SM -SHRA BKN025
FM040000 32008KT P6SM -SHRA OVC030
FM040900 06004KT P6SM VCSH BKN030 BKN150
FM041200 01004KT P6SM SCT030 BKN150

Example: see airport list